Time;durP1;ratioP1;P1;durP2;ratioP2;P2;SDS_P1;SDS_P2;PMS_P1;PMS_P2;Temp;Humidity;BMP_temperature;BMP_pressure;BME280_temperature;BME280_humidity;BME280_pressure;Samples;Min_cycle;Max_cycle;Signal;HPM_P1;HPM_P2
2023/08/23 00:00:04;;;;;;;19.58;13.57;;;;;;;17.15;100.00;101924.22;5052950;28;20116;-68
2023/08/23 00:02:30;;;;;;;19.02;13.68;;;;;;;17.10;100.00;101926.31;5053147;28;20330;-68
2023/08/23 00:04:55;;;;;;;22.10;14.52;;;;;;;17.01;100.00;101923.53;5053204;28;20024;-68
2023/08/23 00:07:20;;;;;;;19.75;15.05;;;;;;;16.94;100.00;101917.59;5052895;28;20036;-68
2023/08/23 00:09:46;;;;;;;20.15;14.63;;;;;;;16.91;100.00;101921.00;5053008;28;20130;-68
2023/08/23 00:12:11;;;;;;;20.02;14.10;;;;;;;16.90;100.00;101922.97;5052749;28;20033;-69
2023/08/23 00:14:37;;;;;;;20.42;14.70;;;;;;;16.85;100.00;101928.69;5052765;28;20500;-69
2023/08/23 00:17:03;;;;;;;20.63;14.77;;;;;;;16.86;100.00;101923.94;5053037;28;20104;-69
2023/08/23 00:19:28;;;;;;;19.10;13.95;;;;;;;16.82;100.00;101909.78;5052706;28;20029;-68
2023/08/23 00:21:53;;;;;;;19.92;14.48;;;;;;;16.81;100.00;101908.97;5052693;28;20393;-68
2023/08/23 00:24:19;;;;;;;20.40;14.20;;;;;;;16.75;100.00;101910.25;5052601;28;20055;-68
2023/08/23 00:26:45;;;;;;;20.38;14.57;;;;;;;16.73;100.00;101914.50;5052739;28;20365;-67
2023/08/23 00:29:10;;;;;;;21.05;15.05;;;;;;;16.68;100.00;101915.47;5052699;28;20036;-69
2023/08/23 00:31:36;;;;;;;21.15;14.60;;;;;;;16.68;100.00;101916.31;5052772;28;20047;-69
2023/08/23 00:34:01;;;;;;;20.15;15.05;;;;;;;16.64;100.00;101911.69;5051191;28;20033;-69
2023/08/23 00:36:27;;;;;;;19.45;14.68;;;;;;;16.61;100.00;101906.72;5052603;28;20035;-69
2023/08/23 00:38:54;;;;;;;21.83;15.05;;;;;;;16.57;100.00;101908.53;5051353;28;20751;-69
2023/08/23 00:41:19;;;;;;;20.10;14.70;;;;;;;16.53;100.00;101902.78;5052910;28;20025;-69
2023/08/23 00:43:44;;;;;;;20.75;15.23;;;;;;;16.48;100.00;101898.13;5052635;28;20036;-69
2023/08/23 00:46:10;;;;;;;19.25;15.13;;;;;;;16.43;100.00;101891.88;5052350;28;20483;-68
2023/08/23 00:48:36;;;;;;;21.13;15.40;;;;;;;16.39;100.00;101891.66;5052521;28;20112;-69
2023/08/23 00:51:01;;;;;;;19.02;14.45;;;;;;;16.37;100.00;101885.59;5052307;28;20029;-69
2023/08/23 00:53:27;;;;;;;19.80;13.80;;;;;;;16.36;100.00;101889.53;5052625;28;20033;-69
2023/08/23 00:55:52;;;;;;;21.45;15.10;;;;;;;16.32;100.00;101880.97;5052296;28;20507;-68
2023/08/23 00:58:18;;;;;;;19.20;14.73;;;;;;;16.29;100.00;101887.19;5052106;28;20028;-69
2023/08/23 01:00:44;;;;;;;19.92;14.18;;;;;;;16.27;100.00;101878.31;5052197;28;20037;-69
2023/08/23 01:03:10;;;;;;;21.00;14.70;;;;;;;16.24;100.00;101878.13;5052124;28;20102;-68
2023/08/23 01:05:58;;;;;;;20.25;14.57;;;;;;;16.24;100.00;101884.56;5052068;28;20119;-68
2023/08/23 01:08:47;;;;;;;20.70;14.98;;;;;;;16.22;100.00;101884.03;5050694;28;20403;-67
2023/08/23 01:11:21;;;;;;;20.02;14.85;;;;;;;16.12;100.00;101890.69;5050528;28;20435;-68
2023/08/23 01:13:58;;;;;;;20.23;15.25;;;;;;;16.13;100.00;101895.13;5051723;28;20056;-68
2023/08/23 01:16:25;;;;;;;19.85;14.30;;;;;;;16.06;100.00;101886.41;5051875;28;20040;-68
2023/08/23 01:18:52;;;;;;;19.17;14.15;;;;;;;16.06;100.00;101895.59;5050675;28;20041;-68
2023/08/23 01:21:25;;;;;;;20.58;15.07;;;;;;;16.03;100.00;101907.41;5050471;28;20090;-68
2023/08/23 01:23:51;;;;;;;19.70;14.40;;;;;;;16.00;100.00;101893.25;5051804;28;20049;-68
2023/08/23 01:26:16;;;;;;;20.42;15.10;;;;;;;16.02;100.00;101899.31;5051772;28;20035;-69
2023/08/23 01:28:41;;;;;;;20.33;14.75;;;;;;;16.01;100.00;101906.06;5051696;28;20415;-68
2023/08/23 01:31:11;;;;;;;19.25;14.63;;;;;;;15.97;100.00;101896.69;5051482;28;20025;-68
2023/08/23 01:33:53;;;;;;;19.88;14.48;;;;;;;15.96;100.00;101901.44;5051293;28;20465;-69
2023/08/23 01:36:28;;;;;;;20.95;14.75;;;;;;;15.93;100.00;101893.69;5051687;28;20114;-68
2023/08/23 01:38:57;;;;;;;21.73;15.07;;;;;;;15.84;100.00;101904.78;5051351;28;20040;-68
2023/08/23 01:41:23;;;;;;;21.35;14.85;;;;;;;15.80;100.00;101892.59;5051556;28;20044;-68
2023/08/23 01:43:48;;;;;;;19.83;14.10;;;;;;;15.77;100.00;101896.00;5051471;28;20033;-69
2023/08/23 01:46:14;;;;;;;20.13;14.45;;;;;;;15.77;100.00;101893.22;5051328;28;20064;-69
2023/08/23 01:48:39;;;;;;;19.60;14.80;;;;;;;15.75;100.00;101887.97;5051381;28;20114;-68
2023/08/23 01:51:06;;;;;;;19.67;14.95;;;;;;;15.70;100.00;101893.66;5051424;28;20040;-67
2023/08/23 01:53:31;;;;;;;20.85;14.75;;;;;;;15.64;100.00;101889.34;5051212;28;20036;-68
2023/08/23 01:55:56;;;;;;;19.25;14.50;;;;;;;15.57;100.00;101880.59;5049818;28;20412;-68
2023/08/23 01:58:21;;;;;;;19.92;15.45;;;;;;;15.55;100.00;101885.66;5051100;28;20040;-68
2023/08/23 02:00:47;;;;;;;19.35;13.95;;;;;;;15.53;100.00;101883.19;5051198;28;20116;-68
2023/08/23 02:03:13;;;;;;;20.27;14.10;;;;;;;15.44;100.00;101885.88;5051015;28;20040;-68
2023/08/23 02:05:38;;;;;;;19.13;13.35;;;;;;;15.42;100.00;101882.59;5051055;28;20020;-68
2023/08/23 02:08:04;;;;;;;19.40;13.45;;;;;;;15.41;100.00;101885.69;5050977;28;20360;-68
2023/08/23 02:10:29;;;;;;;19.67;13.60;;;;;;;15.34;100.00;101879.72;5051102;28;20476;-67
2023/08/23 02:12:54;;;;;;;19.00;13.68;;;;;;;15.34;100.00;101879.72;5050766;28;20453;-68
2023/08/23 02:15:19;;;;;;;19.40;14.18;;;;;;;15.34;100.00;101882.53;5049346;28;20488;-68
2023/08/23 02:17:45;;;;;;;20.35;14.30;;;;;;;15.28;100.00;101877.03;5050965;28;20017;-68
2023/08/23 02:20:10;;;;;;;20.83;13.40;;;;;;;15.31;100.00;101866.41;5050900;28;20119;-68
2023/08/23 02:22:36;;;;;;;19.50;13.30;;;;;;;15.22;100.00;101869.94;5050888;28;20049;-69
2023/08/23 02:25:01;;;;;;;19.50;13.18;;;;;;;15.23;100.00;101879.13;5050692;28;20357;-68
2023/08/23 02:27:26;;;;;;;18.75;13.70;;;;;;;15.18;100.00;101873.66;5049397;28;20125;-69
2023/08/23 02:29:52;;;;;;;18.98;13.68;;;;;;;15.18;100.00;101876.47;5050686;28;20024;-69
2023/08/23 02:32:17;;;;;;;19.38;13.50;;;;;;;15.16;100.00;101873.16;5050994;28;20025;-69
2023/08/23 02:34:42;;;;;;;19.52;13.38;;;;;;;15.13;100.00;101878.22;5049071;28;20102;-68
2023/08/23 02:37:08;;;;;;;18.65;13.60;;;;;;;15.11;100.00;101874.91;5050380;28;20025;-68
2023/08/23 02:39:33;;;;;;;18.77;13.40;;;;;;;15.13;100.00;101869.84;5050401;28;20033;-67
2023/08/23 02:41:58;;;;;;;19.17;13.20;;;;;;;15.14;100.00;101873.47;5050584;28;20033;-68
2023/08/23 02:44:23;;;;;;;19.25;13.00;;;;;;;15.10;100.00;101864.91;5053743;28;20033;-67
2023/08/23 02:46:49;;;;;;;18.55;13.55;;;;;;;15.15;100.00;101875.13;5054845;28;20115;-68
2023/08/23 02:49:14;;;;;;;19.73;13.35;;;;;;;15.18;100.00;101873.66;5054595;28;20456;-67
2023/08/23 02:51:39;;;;;;;20.38;13.50;;;;;;;15.19;100.00;101872.53;5054680;28;20025;-68
2023/08/23 02:54:05;;;;;;;19.27;13.77;;;;;;;15.18;100.00;101863.34;5054515;28;20029;-67
2023/08/23 02:56:30;;;;;;;20.70;13.85;;;;;;;15.20;100.00;101871.41;5054385;28;20527;-68
2023/08/23 02:58:55;;;;;;;20.33;13.90;;;;;;;15.18;100.00;101863.34;5054408;28;20465;-67
2023/08/23 03:01:21;;;;;;;20.17;14.65;;;;;;;15.14;100.00;101862.31;5054469;28;20036;-67
2023/08/23 03:03:46;;;;;;;21.45;14.32;;;;;;;15.09;100.00;101854.91;5054287;28;20128;-68
2023/08/23 03:06:11;;;;;;;19.13;13.63;;;;;;;15.07;100.00;101856.31;5054381;28;20028;-67
2023/08/23 03:08:37;;;;;;;20.10;14.18;;;;;;;15.03;100.00;101852.53;5054307;28;20025;-68
2023/08/23 03:11:06;;;;;;;21.30;14.05;;;;;;;14.98;100.00;101861.81;5054298;28;20025;-67
2023/08/23 03:13:32;;;;;;;20.92;14.13;;;;;;;14.91;100.00;101867.81;5037518;28;20058;-67
2023/08/23 03:15:57;;;;;;;19.42;14.13;;;;;;;14.88;100.00;101859.25;5044175;28;20092;-68
2023/08/23 03:18:23;;;;;;;21.13;14.57;;;;;;;14.82;100.00;101853.81;5054170;28;20392;-68
2023/08/23 03:20:49;;;;;;;20.20;13.98;;;;;;;14.83;100.00;101857.41;5047589;28;20033;-67
2023/08/23 03:23:15;;;;;;;19.58;14.43;;;;;;;14.79;100.00;101857.19;5033750;28;20083;-68
2023/08/23 03:25:40;;;;;;;19.92;14.35;;;;;;;14.81;100.00;101854.09;5034036;28;20091;-68
2023/08/23 03:28:06;;;;;;;19.23;14.52;;;;;;;14.78;100.00;101863.09;5033993;28;20021;-68
2023/08/23 03:30:31;;;;;;;19.83;13.88;;;;;;;14.78;100.00;101860.31;5033884;28;20469;-67
2023/08/23 03:32:56;;;;;;;20.30;13.95;;;;;;;14.77;100.00;101853.09;5048664;28;20025;-68
2023/08/23 03:35:22;;;;;;;20.45;13.80;;;;;;;14.79;100.00;101853.56;5052488;28;20469;-68
2023/08/23 03:37:47;;;;;;;22.10;13.85;;;;;;;14.79;100.00;101860.00;5053755;28;20532;-68
2023/08/23 03:40:12;;;;;;;19.88;14.68;;;;;;;14.82;100.00;101861.31;5053925;28;20381;-68
2023/08/23 03:42:38;;;;;;;20.25;14.05;;;;;;;14.82;100.00;101858.53;5053598;28;20380;-69
2023/08/23 03:45:03;;;;;;;20.33;14.18;;;;;;;14.82;100.00;101856.59;5053582;28;20028;-69
2023/08/23 03:47:30;;;;;;;19.20;13.65;;;;;;;14.85;100.00;101855.13;5052181;28;20049;-67
2023/08/23 03:49:56;;;;;;;19.13;13.63;;;;;;;14.80;100.00;101856.06;5053513;28;20115;-68
2023/08/23 03:52:21;;;;;;;19.88;13.77;;;;;;;14.78;100.00;101857.53;5053504;28;20135;-68
2023/08/23 03:54:46;;;;;;;19.75;13.95;;;;;;;14.80;100.00;101858.00;5052828;28;20037;-68
2023/08/23 03:57:12;;;;;;;19.17;14.20;;;;;;;14.77;100.00;101862.25;5053415;28;20025;-67
2023/08/23 03:59:37;;;;;;;19.80;13.82;;;;;;;14.73;100.00;101865.97;5044058;28;20116;-68
2023/08/23 04:02:02;;;;;;;19.05;13.18;;;;;;;14.71;100.00;101869.06;5033382;28;20109;-69
2023/08/23 04:04:28;;;;;;;19.50;13.50;;;;;;;14.66;100.00;101860.78;5033225;28;20457;-68
2023/08/23 04:06:53;;;;;;;18.63;13.10;;;;;;;14.61;100.00;101855.31;5033127;28;20026;-68
2023/08/23 04:09:19;;;;;;;19.25;12.75;;;;;;;14.59;100.00;101864.00;5033247;28;20362;-68
2023/08/23 04:11:44;;;;;;;21.27;14.20;;;;;;;14.59;100.00;101857.59;5033104;28;20065;-69
2023/08/23 04:14:09;;;;;;;18.23;13.02;;;;;;;14.58;100.00;101859.56;5032997;28;20041;-69
2023/08/23 04:16:34;;;;;;;19.38;13.18;;;;;;;14.58;100.00;101870.69;5033119;28;20090;-68
2023/08/23 04:19:00;;;;;;;21.02;12.90;;;;;;;14.59;100.00;101868.72;5033149;28;20380;-67
2023/08/23 04:21:26;;;;;;;20.42;13.38;;;;;;;14.55;100.00;101862.94;5032982;28;20032;-69
2023/08/23 04:23:52;;;;;;;18.15;13.05;;;;;;;14.58;100.00;101869.84;5032989;28;20041;-66
2023/08/23 04:26:17;;;;;;;19.70;13.48;;;;;;;14.56;100.00;101866.53;5032989;28;20025;-66
2023/08/23 04:28:43;;;;;;;19.98;14.20;;;;;;;14.57;100.00;101865.41;5032847;28;20440;-67
2023/08/23 04:31:08;;;;;;;20.27;14.25;;;;;;;14.57;100.00;101868.19;5032663;28;20480;-67
2023/08/23 04:33:35;;;;;;;21.27;14.27;;;;;;;14.56;100.00;101866.53;5032728;28;20499;-67
2023/08/23 04:36:02;;;;;;;19.50;14.40;;;;;;;14.51;100.00;101876.66;5032850;28;20095;-67
2023/08/23 04:38:27;;;;;;;19.60;13.55;;;;;;;14.50;100.00;101865.81;5032784;28;20027;-68
2023/08/23 04:41:03;;;;;;;19.30;13.60;;;;;;;14.46;100.00;101860.03;5032680;28;20037;-67
2023/08/23 04:43:29;;;;;;;21.58;13.82;;;;;;;14.43;100.00;101865.41;5032602;28;20054;-67
2023/08/23 04:45:55;;;;;;;19.55;13.43;;;;;;;14.39;100.00;101870.75;5032442;28;20488;-67
2023/08/23 04:48:21;;;;;;;18.65;13.13;;;;;;;14.32;100.00;101875.91;5032341;28;20049;-67
2023/08/23 04:50:51;;;;;;;19.75;12.85;;;;;;;14.31;100.00;101863.13;5032446;28;20044;-67
2023/08/23 04:53:16;;;;;;;20.83;13.15;;;;;;;14.29;100.00;101857.03;5032441;28;20053;-68
2023/08/23 04:55:41;;;;;;;19.42;12.65;;;;;;;14.34;100.00;101862.53;5032310;28;20053;-67
2023/08/23 04:58:07;;;;;;;22.08;13.55;;;;;;;14.32;100.00;101857.25;5032243;28;20031;-67
2023/08/23 05:00:32;;;;;;;19.65;13.15;;;;;;;14.33;100.00;101860.88;5032221;28;20028;-68
2023/08/23 05:02:57;;;;;;;20.60;13.02;;;;;;;14.27;100.00;101864.84;5032214;28;20423;-68
2023/08/23 05:05:23;;;;;;;19.33;13.50;;;;;;;14.25;100.00;101856.81;5032120;28;20026;-68
2023/08/23 05:07:49;;;;;;;18.58;13.10;;;;;;;14.32;100.00;101856.44;5031118;28;20048;-67
2023/08/23 05:10:15;;;;;;;18.40;13.13;;;;;;;14.39;100.00;101862.41;5032340;28;20108;-68
2023/08/23 05:12:40;;;;;;;19.15;13.68;;;;;;;14.45;100.00;101868.72;5032034;28;20179;-66
2023/08/23 05:15:06;;;;;;;19.13;13.40;;;;;;;14.50;100.00;101869.44;5032296;28;20053;-67
2023/08/23 05:17:31;;;;;;;19.55;13.50;;;;;;;14.56;100.00;101861.81;5032149;28;20121;-67
2023/08/23 05:19:56;;;;;;;20.23;13.40;;;;;;;14.64;100.00;101855.53;5031983;28;20113;-67
2023/08/23 05:22:21;;;;;;;20.00;13.23;;;;;;;14.71;100.00;101857.94;5031988;28;20033;-66
2023/08/23 05:24:47;;;;;;;19.85;13.45;;;;;;;14.81;100.00;101863.28;5031877;28;20025;-66
2023/08/23 05:27:12;;;;;;;19.40;13.30;;;;;;;14.89;100.00;101858.13;5031841;28;20083;-67
2023/08/23 05:29:37;;;;;;;20.30;13.70;;;;;;;14.95;100.00;101863.28;5031896;28;20057;-68
2023/08/23 05:32:03;;;;;;;19.77;13.38;;;;;;;15.03;100.00;101860.91;5032061;28;20036;-67
2023/08/23 05:34:28;;;;;;;19.35;13.38;;;;;;;15.05;100.00;101866.97;5031832;28;20029;-67
2023/08/23 05:36:53;;;;;;;20.52;13.57;;;;;;;15.09;100.00;101854.91;5031728;28;20519;-66
2023/08/23 05:39:19;;;;;;;21.27;14.10;;;;;;;15.09;100.00;101854.06;5031627;28;20039;-68
2023/08/23 05:41:44;;;;;;;21.77;13.70;;;;;;;15.20;100.00;101857.47;5031469;28;20018;-68
2023/08/23 05:44:10;;;;;;;20.55;14.57;;;;;;;15.24;100.00;101856.53;5031530;28;20032;-67
2023/08/23 05:46:35;;;;;;;20.25;14.60;;;;;;;15.32;100.00;101854.13;5031663;28;20049;-67
2023/08/23 05:49:00;;;;;;;20.33;14.23;;;;;;;15.38;100.00;101862.06;5031162;28;20021;-68
2023/08/23 05:51:26;;;;;;;21.15;14.70;;;;;;;15.45;100.00;101858.81;5031622;28;20057;-69
2023/08/23 05:53:51;;;;;;;21.95;14.60;;;;;;;15.49;100.00;101856.25;5046479;28;20029;-67
2023/08/23 05:56:16;;;;;;;21.25;14.75;;;;;;;15.53;100.00;101860.88;5042022;28;20121;-68
2023/08/23 05:58:42;;;;;;;21.13;15.43;;;;;;;15.58;100.00;101866.31;5040676;28;20101;-68
2023/08/23 06:01:07;;;;;;;21.98;15.65;;;;;;;15.58;100.00;101871.91;5042665;28;20052;-69
2023/08/23 06:03:32;;;;;;;22.15;15.88;;;;;;;15.58;100.00;101876.66;5039569;28;20101;-70
2023/08/23 06:05:58;;;;;;;22.13;16.20;;;;;;;15.62;100.00;101876.84;5039849;28;20388;-68
2023/08/23 06:08:23;;;;;;;22.80;16.90;;;;;;;15.64;100.00;101878.19;5040972;28;20076;-69
2023/08/23 06:10:48;;;;;;;24.98;17.20;;;;;;;15.67;100.00;101880.34;5041377;28;20031;-69
2023/08/23 06:13:15;;;;;;;26.13;18.00;;;;;;;15.67;100.00;101882.31;5039335;28;20045;-69
2023/08/23 06:15:40;;;;;;;22.90;16.92;;;;;;;15.74;100.00;101877.94;5041340;28;20032;-69
2023/08/23 06:18:05;;;;;;;24.38;18.63;;;;;;;15.77;100.00;101879.25;5040844;28;20080;-69
2023/08/23 06:20:31;;;;;;;24.77;18.52;;;;;;;15.85;100.00;101881.31;5042581;28;20029;-70
2023/08/23 06:22:59;;;;;;;25.67;19.45;;;;;;;15.92;100.00;101871.69;5039609;28;20025;-71
2023/08/23 06:25:24;;;;;;;29.80;20.33;;;;;;;15.99;100.00;101877.66;5040688;28;20551;-69
2023/08/23 06:27:50;;;;;;;30.33;19.77;;;;;;;16.04;100.00;101883.09;5041520;28;20088;-69
2023/08/23 06:30:15;;;;;;;28.33;19.95;;;;;;;16.11;100.00;101882.66;5039591;28;20494;-71
2023/08/23 06:32:50;;;;;;;29.00;20.77;;;;;;;16.19;100.00;101885.50;5039601;28;20056;-69
2023/08/23 06:35:17;;;;;;;33.50;20.45;;;;;;;16.24;100.00;101883.72;5042215;28;20026;-70
2023/08/23 06:37:43;;;;;;;31.95;21.02;;;;;;;16.30;100.00;101888.84;5040898;28;20025;-69
2023/08/23 06:40:11;;;;;;;27.30;20.48;;;;;;;16.34;100.00;101889.84;5041162;28;20049;-70
2023/08/23 06:42:37;;;;;;;26.80;21.00;;;;;;;16.41;100.00;101892.19;5039753;28;20025;-68
2023/08/23 06:45:02;;;;;;;26.20;20.33;;;;;;;16.48;100.00;101884.16;5040771;28;20029;-70
2023/08/23 06:47:28;;;;;;;29.08;21.90;;;;;;;16.58;100.00;101888.66;5038659;28;20113;-69
2023/08/23 06:49:53;;;;;;;28.33;20.50;;;;;;;16.68;100.00;101885.56;5040176;28;20025;-70
2023/08/23 06:52:18;;;;;;;26.33;19.40;;;;;;;16.79;100.00;101882.50;5039676;28;20021;-70
2023/08/23 06:54:44;;;;;;;26.52;20.48;;;;;;;16.90;100.00;101881.06;5042234;28;20021;-70
2023/08/23 06:57:09;;;;;;;27.35;21.40;;;;;;;17.01;100.00;101887.19;5039388;28;20037;-71
2023/08/23 06:59:34;;;;;;;26.58;20.48;;;;;;;17.13;100.00;101890.19;5039206;28;20588;-72
2023/08/23 07:02:00;;;;;;;29.25;21.38;;;;;;;17.23;100.00;101900.22;5035887;28;20044;-71
2023/08/23 07:04:25;;;;;;;27.15;20.90;;;;;;;17.33;100.00;101898.25;5038722;28;20484;-72
2023/08/23 07:06:50;;;;;;;26.75;20.15;;;;;;;17.40;100.00;101905.03;5041112;28;20048;-70
2023/08/23 07:09:16;;;;;;;27.52;19.50;;;;;;;17.51;100.00;101904.72;5041747;28;20033;-72
2023/08/23 07:11:41;;;;;;;25.60;19.60;;;;;;;17.58;100.00;101893.84;5041825;28;20056;-74
2023/08/23 07:14:08;;;;;;;25.10;19.40;;;;;;;17.66;100.00;101901.41;5038924;28;20042;-74
2023/08/23 07:16:34;;;;;;;23.88;18.65;;;;;;;17.70;100.00;101898.78;5037415;28;20021;-75
2023/08/23 07:19:01;;;;;;;24.33;19.73;;;;;;;17.84;100.00;101898.59;5037253;28;20377;-73
2023/08/23 07:21:27;;;;;;;25.10;19.23;;;;;;;17.97;100.00;101905.22;5039439;28;20025;-71
2023/08/23 07:23:53;;;;;;;26.38;19.60;;;;;;;18.05;100.00;101912.75;5037660;28;20104;-70
2023/08/23 07:26:18;;;;;;;24.77;19.00;;;;;;;18.10;100.00;101904.22;5041252;28;20385;-70
2023/08/23 07:28:43;;;;;;;24.92;18.95;;;;;;;18.17;100.00;101910.13;5038006;28;20025;-69
2023/08/23 07:31:09;;;;;;;24.77;19.25;;;;;;;18.24;100.00;101906.81;5042781;28;20025;-70
2023/08/23 07:33:34;;;;;;;24.75;19.48;;;;;;;18.35;100.00;101916.53;5043502;28;20384;-70
2023/08/23 07:36:00;;;;;;;26.38;18.77;;;;;;;18.47;100.00;101912.19;5041541;28;20048;-70
2023/08/23 07:38:28;;;;;;;24.10;19.08;;;;;;;18.53;100.00;101920.06;5040187;28;20465;-72
2023/08/23 07:41:03;;;;;;;23.00;19.08;;;;;;;18.65;100.00;101933.41;5043046;28;20018;-70
2023/08/23 07:43:28;;;;;;;23.73;17.08;;;;;;;18.74;100.00;101924.94;5042446;28;20025;-70
2023/08/23 07:45:59;;;;;;;23.73;17.58;;;;;;;18.88;100.00;101930.31;5041824;28;20476;-70
2023/08/23 07:48:25;;;;;;;24.27;18.70;;;;;;;18.97;99.21;101924.72;5044341;28;20036;-70
2023/08/23 07:50:57;;;;;;;23.83;18.27;;;;;;;19.02;96.91;101930.97;5051214;28;20029;-72
2023/08/23 07:53:23;;;;;;;25.17;19.50;;;;;;;19.09;98.61;101919.19;5043957;28;20033;-72
2023/08/23 07:55:49;;;;;;;25.27;19.00;;;;;;;19.17;97.02;101925.91;5051623;28;20032;-72
2023/08/23 07:58:15;;;;;;;23.80;18.55;;;;;;;19.23;97.45;101926.56;5052578;28;20048;-72
2023/08/23 08:00:40;;;;;;;25.55;18.88;;;;;;;19.36;98.23;101925.50;5051165;28;20052;-71
2023/08/23 08:03:06;;;;;;;22.83;18.08;;;;;;;19.41;97.49;101928.09;5051181;28;20083;-71
2023/08/23 08:05:35;;;;;;;26.60;18.73;;;;;;;19.47;96.28;101923.91;5051031;28;20128;-72
2023/08/23 08:08:02;;;;;;;22.85;17.98;;;;;;;19.56;96.07;101935.06;5051146;28;20450;-72
2023/08/23 08:10:28;;;;;;;22.73;17.42;;;;;;;19.59;93.44;101928.78;5050978;28;20063;-71
2023/08/23 08:12:53;;;;;;;22.88;16.77;;;;;;;19.64;92.20;101930.56;5042546;28;20073;-72
2023/08/23 08:15:18;;;;;;;21.83;16.13;;;;;;;19.68;92.70;101931.50;5041949;28;20743;-71
2023/08/23 08:17:44;;;;;;;20.50;15.63;;;;;;;19.75;92.82;101928.16;5036990;28;20037;-70
2023/08/23 08:20:12;;;;;;;22.60;16.80;;;;;;;19.83;93.50;101923.66;5040682;28;20124;-70
2023/08/23 08:22:37;;;;;;;23.65;16.77;;;;;;;19.97;92.12;101920.56;5043218;28;20029;-70
2023/08/23 08:25:04;;;;;;;21.90;15.73;;;;;;;20.09;91.43;101931.84;5043044;28;20075;-70
2023/08/23 08:27:30;;;;;;;21.50;15.60;;;;;;;20.17;89.57;101932.94;5041082;28;20102;-70
2023/08/23 08:29:55;;;;;;;21.45;15.75;;;;;;;20.26;89.69;101926.03;5040409;28;20423;-70
2023/08/23 08:32:20;;;;;;;22.60;15.77;;;;;;;20.34;88.20;101929.13;5041281;28;20040;-71
2023/08/23 08:34:46;;;;;;;21.33;15.18;;;;;;;20.36;85.99;101926.75;5045143;28;20059;-72
2023/08/23 08:37:12;;;;;;;22.83;15.90;;;;;;;20.38;86.74;101933.72;5043803;28;20052;-72
2023/08/23 08:39:37;;;;;;;21.63;16.13;;;;;;;20.51;87.99;101936.53;5039965;28;20071;-72
2023/08/23 08:42:03;;;;;;;21.42;16.00;;;;;;;20.54;86.45;101938.66;5042661;28;20045;-72
2023/08/23 08:44:29;;;;;;;20.98;16.15;;;;;;;20.69;86.49;101932.34;5031226;28;20476;-71
2023/08/23 08:46:54;;;;;;;21.60;15.80;;;;;;;20.81;86.18;101923.16;5045318;28;20127;-72
2023/08/23 08:49:19;;;;;;;20.77;15.02;;;;;;;20.99;85.96;101922.91;5041231;28;20393;-72
2023/08/23 08:51:46;;;;;;;22.77;15.00;;;;;;;21.02;81.96;101916.56;5032072;28;20080;-71
2023/08/23 08:54:15;;;;;;;21.10;14.82;;;;;;;21.07;82.46;101924.78;5031974;28;20039;-72
2023/08/23 08:56:43;;;;;;;22.40;14.65;;;;;;;21.11;79.64;101919.25;5051509;28;20345;-72
2023/08/23 08:59:09;;;;;;;20.90;14.60;;;;;;;21.19;79.73;101923.94;5051629;28;20029;-72
2023/08/23 09:01:36;;;;;;;22.80;14.32;;;;;;;21.29;80.26;101931.09;5049529;28;20090;-72
2023/08/23 09:04:02;;;;;;;20.48;14.40;;;;;;;21.37;79.95;101930.16;5050769;28;20055;-71
2023/08/23 09:06:28;;;;;;;21.30;14.45;;;;;;;21.54;81.13;101931.03;5048123;28;20058;-71
2023/08/23 09:08:54;;;;;;;22.02;14.88;;;;;;;21.61;80.53;101922.84;5034810;28;20026;-71
2023/08/23 09:11:20;;;;;;;22.00;14.85;;;;;;;21.69;80.67;101921.88;5031167;28;20033;-71
2023/08/23 09:13:45;;;;;;;21.75;14.35;;;;;;;21.70;76.97;101920.69;5029839;28;20050;-72
2023/08/23 09:16:13;;;;;;;22.55;15.23;;;;;;;21.73;77.87;101921.97;5031335;28;20041;-70
2023/08/23 09:18:43;;;;;;;21.75;14.88;;;;;;;21.79;77.74;101917.75;5033369;28;20527;-71
2023/08/23 09:21:10;;;;;;;22.00;14.45;;;;;;;21.95;78.25;101924.25;5031428;28;20033;-72
2023/08/23 09:23:36;;;;;;;21.48;14.30;;;;;;;22.06;76.39;101918.09;5032563;28;20044;-72
2023/08/23 09:26:01;;;;;;;21.48;14.23;;;;;;;22.16;77.19;101919.56;5051292;28;20025;-72
2023/08/23 09:28:28;;;;;;;22.45;14.38;;;;;;;22.24;76.33;101918.59;5051098;28;20477;-72
2023/08/23 09:30:54;;;;;;;21.83;14.02;;;;;;;22.34;76.82;101918.03;5050107;28;20025;-73
2023/08/23 09:33:20;;;;;;;21.73;14.60;;;;;;;22.34;76.62;101912.41;5049456;28;20029;-71
2023/08/23 09:35:50;;;;;;;21.55;14.60;;;;;;;22.33;75.44;101921.25;5045719;28;20052;-74
2023/08/23 09:38:21;;;;;;;23.90;14.73;;;;;;;22.40;75.76;101918.63;5050876;28;20029;-72
2023/08/23 09:40:48;;;;;;;22.15;13.25;;;;;;;22.52;76.37;101920.56;5032289;28;20342;-73
2023/08/23 09:43:16;;;;;;;21.33;14.13;;;;;;;22.60;75.20;101930.84;5031167;28;20033;-73
2023/08/23 09:45:43;;;;;;;21.25;13.40;;;;;;;22.69;75.95;101925.03;5035017;28;20064;-76
2023/08/23 09:48:10;;;;;;;22.55;13.82;;;;;;;22.69;75.60;101910.91;5042643;28;20114;-68
2023/08/23 09:50:36;;;;;;;20.45;13.73;;;;;;;22.81;74.52;101910.84;5044296;28;20036;-73
2023/08/23 09:53:04;;;;;;;21.08;14.73;;;;;;;22.77;73.37;101911.94;5036061;28;20033;-71
2023/08/23 09:55:33;;;;;;;20.60;13.50;;;;;;;22.92;74.46;101919.53;5030394;28;20036;-73
2023/08/23 09:58:00;;;;;;;22.00;13.43;;;;;;;22.97;74.13;101908.00;5030553;28;20029;-70
2023/08/23 10:00:27;;;;;;;21.45;13.15;;;;;;;23.04;74.28;101908.16;5028777;28;20032;-72
2023/08/23 10:02:53;;;;;;;21.48;12.68;;;;;;;23.13;74.69;101913.63;5030219;28;20033;-72
2023/08/23 10:05:19;;;;;;;19.58;12.80;;;;;;;23.19;73.46;101908.53;5030847;28;20055;-74
2023/08/23 10:07:45;;;;;;;21.83;13.98;;;;;;;23.19;73.10;101909.34;5032740;28;20038;-74
2023/08/23 10:10:11;;;;;;;23.98;13.07;;;;;;;23.19;72.73;101915.00;5050241;28;20035;-74
2023/08/23 10:12:40;;;;;;;22.65;13.18;;;;;;;23.29;73.97;101913.59;5050126;28;20017;-73
2023/08/23 10:15:08;;;;;;;19.92;12.48;;;;;;;23.43;72.83;101915.13;5049933;28;20048;-74
2023/08/23 10:17:35;;;;;;;18.60;11.70;;;;;;;23.43;72.08;101915.91;5050185;28;20025;-75
2023/08/23 10:20:10;;;;;;;20.95;12.50;;;;;;;23.46;71.12;101925.69;5048821;28;20439;-74
2023/08/23 10:22:36;;;;;;;19.58;12.05;;;;;;;23.49;70.80;101914.47;5050510;28;20044;-74
2023/08/23 10:25:03;;;;;;;19.60;12.30;;;;;;;23.48;69.90;101909.16;5049566;28;20449;-72
2023/08/23 10:27:33;;;;;;;20.67;12.10;;;;;;;23.54;71.34;101916.19;5049839;28;20472;-72
2023/08/23 10:30:06;;;;;;;19.15;11.73;;;;;;;23.73;71.87;101911.72;5048995;28;20032;-70
2023/08/23 10:32:37;;;;;;;15.90;10.48;;;;;;;23.71;64.78;101916.91;5049994;28;20457;-71
2023/08/23 10:35:19;;;;;;;16.60;10.10;;;;;;;23.84;65.17;101915.59;5049741;28;20037;-69
2023/08/23 10:37:45;;;;;;;16.42;10.25;;;;;;;23.86;63.04;101915.22;5049395;28;20029;-73
2023/08/23 10:40:10;;;;;;;17.80;10.70;;;;;;;23.84;65.22;101907.13;5049583;28;20037;-71
2023/08/23 10:42:36;;;;;;;16.85;10.95;;;;;;;23.85;63.47;101903.09;5048054;28;20070;-72
2023/08/23 10:45:05;;;;;;;17.20;10.30;;;;;;;23.92;64.64;101906.06;5049194;28;20033;-72
2023/08/23 10:47:36;;;;;;;18.40;10.75;;;;;;;23.94;63.60;101908.50;5039473;28;20476;-75
2023/08/23 10:50:05;;;;;;;18.30;10.90;;;;;;;24.02;64.65;101907.47;5036769;28;20033;-70
2023/08/23 10:52:30;;;;;;;18.90;11.35;;;;;;;24.04;64.83;101913.59;5039933;28;20085;-71
2023/08/23 10:54:57;;;;;;;19.08;11.30;;;;;;;24.03;64.06;101909.13;5036368;28;20103;-70
2023/08/23 10:57:22;;;;;;;18.25;11.50;;;;;;;24.11;64.41;101905.25;5034588;28;20348;-71
2023/08/23 10:59:47;;;;;;;17.40;11.18;;;;;;;24.22;64.02;101905.47;5035744;28;20051;-71